METAR Data
IDs: Format: Raw Decoded Include TAF

Data at: 0123 UTC 24 Sep 2018

KBKN 240115Z AUTO 15008KT 10SM 20/19 A2996 RMK AO2
KBKN 240055Z AUTO 15009KT 10SM 21/19 A2996 RMK AO2
KBKN 240035Z AUTO 15010KT 10SM CLR 22/19 A2995 RMK AO2
KBKN 240015Z AUTO 16008KT 10SM CLR 23/19 A2995 RMK AO2
KBKN 232355Z AUTO 14008KT 10SM CLR 24/18 A2995 RMK AO2
KBKN 232335Z AUTO 12008KT 10SM CLR 25/17 A2995 RMK AO2
KBKN 232315Z AUTO 11009KT 10SM CLR 26/16 A2995 RMK AO2
KBKN 232255Z AUTO 13010KT 10SM CLR 26/16 A2995 RMK AO2
KBKN 232235Z AUTO 10008G13KT 10SM CLR 26/16 A2995 RMK AO2
KBKN 232215Z AUTO 11009KT 10SM CLR 27/16 A2996 RMK AO2
KBKN 232155Z AUTO 13006KT 10SM CLR 27/16 A2996 RMK AO2
KBKN 232135Z AUTO 14009KT 10SM CLR 26/16 A2997 RMK AO2
KBKN 232115Z AUTO 10009G14KT 10SM CLR 26/16 A2997 RMK AO2
KBKN 232055Z AUTO 10007KT 10SM CLR 26/16 A2998 RMK AO2
KBKN 232035Z AUTO VRB06G11KT 10SM CLR 25/16 A2998 RMK AO2
KBKN 232015Z AUTO 09005G12KT 10SM CLR 25/16 A2999 RMK AO2
KBKN 231955Z AUTO 11006KT 10SM CLR 25/16 A3000 RMK AO2
KBKN 231935Z AUTO VRB06KT 10SM CLR 24/17 A3002 RMK AO2
KBKN 231915Z AUTO 08008KT 10SM CLR 24/17 A3003 RMK AO2
KBKN 231855Z AUTO VRB04G11KT 10SM CLR 23/17 A3004 RMK AO2
KBKN 231835Z AUTO 09007G12KT 10SM SCT018 22/17 A3005 RMK AO2
KBKN 231815Z AUTO 09008KT 050V110 10SM OVC017 21/18 A3006 RMK AO2
KBKN 231755Z AUTO 07008KT 10SM OVC015 20/17 A3008 RMK AO2
KBKN 231735Z AUTO 05008KT 10SM OVC014 20/18 A3008 RMK AO2
KBKN 231715Z AUTO 08006KT 10SM OVC014 20/17 A3009 RMK AO2
KBKN 231655Z AUTO 08006G12KT 050V110 10SM OVC014 20/17 A3009 RMK AO2
KBKN 231635Z AUTO 05006KT 10SM OVC014 19/18 A3010 RMK AO2
KBKN 231615Z AUTO 05008KT 10SM OVC014 19/18 A3010 RMK AO2
KBKN 231555Z AUTO 06006KT 10SM OVC012 19/18 A3010 RMK AO2
KBKN 231535Z AUTO 05005KT 10SM OVC011 18/18 A3010 RMK AO2
KBKN 231515Z AUTO 06006KT 10SM OVC011 18/18 A3010 RMK AO2
KBKN 231455Z AUTO 07006KT 10SM OVC011 18/18 A3009 RMK AO2
KBKN 231435Z AUTO 08005KT 10SM OVC011 18/18 A3009 RMK AO2
KBKN 231415Z AUTO 05005KT 10SM OVC011 18/18 A3009 RMK AO2
KBKN 231355Z AUTO 05006KT 10SM OVC011 18/18 A3009 RMK AO2
KBKN 231335Z AUTO 05005KT 10SM OVC011 18/18 A3008 RMK AO2
KBKN 231315Z AUTO 06006KT 10SM OVC011 17/17 A3008 RMK AO2
KBKN 231255Z AUTO 06007KT 10SM -DZ OVC012 17/17 A3008 RMK AO2
KBKN 231235Z AUTO 02004KT 10SM 17/17 A3008 RMK AO2
KBKN 231215Z AUTO 01004KT 10SM 17/17 A3007 RMK AO2
KBKN 231155Z AUTO 04004KT 10SM 17/17 A3007 RMK AO2
KBKN 231135Z AUTO 04003KT 10SM 17/17 A3007 RMK AO2
KBKN 231115Z AUTO 05003KT 10SM 17/17 A3007 RMK AO2
KBKN 231055Z AUTO 00000KT 10SM 17/17 A3007 RMK AO2
KBKN 231035Z AUTO 00000KT 10SM 16/16 A3006 RMK AO2
KBKN 231015Z AUTO 00000KT 10SM 16/16 A3006 RMK AO2
KBKN 230955Z AUTO 00000KT 10SM 16/16 A3006 RMK AO2
KBKN 230935Z AUTO 00000KT 10SM 16/16 A3006 RMK AO2
KBKN 230915Z AUTO 04004KT 10SM 15/15 A3006 RMK AO2
KBKN 230855Z AUTO 03003KT 10SM 15/15 A3007 RMK AO2
KBKN 230835Z AUTO 00000KT 10SM 15/15 A3007 RMK AO2
KBKN 230815Z AUTO 04003KT 10SM 14/14 A3007 RMK AO2
KBKN 230755Z AUTO 05003KT 10SM 14/14 A3007 RMK AO2
KBKN 230735Z AUTO 03004KT 10SM 15/15 A3008 RMK AO2
KBKN 230715Z AUTO 01005KT 10SM 15/15 A3008 RMK AO2
KBKN 230655Z AUTO 02004KT 10SM 15/15 A3008 RMK AO2
KBKN 230635Z AUTO 02005KT 10SM 15/15 A3008 RMK AO2
KBKN 230615Z AUTO 04005KT 10SM 15/15 A3009 RMK AO2
KBKN 230555Z AUTO 05004KT 10SM 16/16 A3009 RMK AO2
KBKN 230535Z AUTO 00000KT 10SM 16/16 A3009 RMK AO2
KBKN 230515Z AUTO 00000KT 10SM 15/15 A3009 RMK AO2
KBKN 230455Z AUTO 00000KT 10SM 16/16 A3010 RMK AO2
KBKN 230435Z AUTO 09005KT 10SM 16/16 A3010 RMK AO2
KBKN 230415Z AUTO 10006KT 10SM 16/16 A3010 RMK AO2
KBKN 230355Z AUTO 09004KT 10SM 16/16 A3010 RMK AO2
KBKN 230335Z AUTO 08005KT 10SM 16/16 A3011 RMK AO2
KBKN 230315Z AUTO 07005KT 10SM 16/16 A3011 RMK AO2
KBKN 230255Z AUTO 07006KT 10SM 17/16 A3012 RMK AO2
KBKN 230235Z AUTO 06007KT 10SM 17/16 A3011 RMK AO2
KBKN 230215Z AUTO 05004KT 10SM 17/16 A3011 RMK AO2
KBKN 230155Z AUTO 05006KT 10SM 18/16 A3010 RMK AO2
KBKN 230135Z AUTO 05006KT 10SM 18/16 A3009 RMK AO2
KBKN 230115Z AUTO 04007KT 10SM 19/16 A3009 RMK AO2
KBKN 230055Z AUTO 06006KT 10SM 19/15 A3009 RMK AO2
KBKN 230035Z AUTO 05005KT 10SM CLR 20/15 A3008 RMK AO2
KBKN 230015Z AUTO 05004KT 8SM CLR 22/15 A3008 RMK AO2
KBKN 222355Z AUTO 05007KT 10SM CLR 24/14 A3008 RMK AO2
KBKN 222335Z AUTO 06007KT 10SM CLR 25/13 A3008 RMK AO2
KBKN 222315Z AUTO 05007KT 10SM CLR 25/13 A3008 RMK AO2
KBKN 222255Z AUTO 07009KT 10SM CLR 25/12 A3008 RMK AO2
KBKN 222235Z AUTO 06008KT 10SM CLR 26/12 A3008 RMK AO2
KBKN 222215Z AUTO 03007KT 10SM CLR 26/12 A3008 RMK AO2
KBKN 222155Z AUTO 05007G13KT 030V090 10SM CLR 26/12 A3009 RMK AO2
KBKN 222135Z AUTO 06009KT 10SM CLR 26/12 A3009 RMK AO2
KBKN 222115Z AUTO 07009KT 10SM CLR 26/12 A3010 RMK AO2
KBKN 222055Z AUTO 03006G15KT 9SM CLR 26/13 A3010 RMK AO2
KBKN 222035Z AUTO 04007KT 10SM CLR 25/13 A3011 RMK AO2
KBKN 222015Z AUTO 06012KT 10SM CLR 25/13 A3011 RMK AO2
KBKN 221955Z AUTO 03012KT 10SM CLR 25/13 A3013 RMK AO2
KBKN 221935Z AUTO 06010KT 10SM CLR 25/14 A3014 RMK AO2
KBKN 221915Z AUTO 04008KT 10SM CLR 24/14 A3014 RMK AO2
KBKN 221855Z AUTO 04009G14KT 10SM CLR 23/13 A3015 RMK AO2
KBKN 221835Z AUTO 03009G16KT 360V070 10SM CLR 23/14 A3016 RMK AO2
KBKN 221815Z AUTO 05010KT 10SM CLR 23/14 A3017 RMK AO2
KBKN 221755Z AUTO 05009KT 10SM CLR 22/14 A3018 RMK AO2
KBKN 221735Z AUTO 04008KT 010V070 10SM CLR 22/14 A3019 RMK AO2
KBKN 221715Z AUTO 06010KT 10SM CLR 21/14 A3020 RMK AO2
KBKN 221655Z AUTO 07010KT 10SM CLR 21/14 A3021 RMK AO2
KBKN 221635Z AUTO 04007G14KT 10SM CLR 20/14 A3021 RMK AO2
KBKN 221615Z AUTO 04010KT 10SM CLR 19/14 A3022 RMK AO2
KBKN 221555Z AUTO 05012KT 10SM CLR 18/13 A3022 RMK AO2
KBKN 221535Z AUTO 04014KT 10SM CLR 18/13 A3023 RMK AO2
KBKN 221515Z AUTO 03010G16KT 10SM CLR 17/13 A3023 RMK AO2
KBKN 221455Z AUTO 04011KT 10SM CLR 16/13 A3023 RMK AO2
KBKN 221435Z AUTO 03012KT 6SM HZ CLR 15/13 A3023 RMK AO2
KBKN 221415Z AUTO 02008G14KT 350V060 10SM CLR 14/13 A3023 RMK AO2
KBKN 221355Z AUTO 01009KT 10SM CLR 13/12 A3023 RMK AO2
KBKN 221335Z AUTO 01009KT 10SM CLR 13/12 A3024 RMK AO2